Time;durP1;ratioP1;P1;durP2;ratioP2;P2;SDS_P1;SDS_P2;PMS_P1;PMS_P2;Temp;Humidity;BMP_temperature;BMP_pressure;BME280_temperature;BME280_humidity;BME280_pressure;Samples;Min_cycle;Max_cycle;Signal;HPM_P1;HPM_P2
2022/04/09 00:00:21;;;;;;;1.03;1.03;;;;;;;;;;5094120;28;20476;-79
2022/04/09 00:02:48;;;;;;;1.20;1.20;;;;;;;;;;5093880;28;20448;-78
2022/04/09 00:05:16;;;;;;;1.03;1.03;;;;;;;;;;5094243;28;20468;-79
2022/04/09 00:07:43;;;;;;;1.20;1.20;;;;;;;;;;5093617;28;20861;-78
2022/04/09 00:10:11;;;;;;;1.23;1.23;;;;;;;;;;5094188;28;20508;-78
2022/04/09 00:12:38;;;;;;;1.67;1.63;;;;;;;;;;5093799;28;20560;-80
2022/04/09 00:15:06;;;;;;;1.70;1.60;;;;;;;;;;5093906;28;20460;-80
2022/04/09 00:17:37;;;;;;;1.70;1.70;;;;;;;;;;5093880;28;20440;-79
2022/04/09 00:20:04;;;;;;;1.60;1.60;;;;;;;;;;5094002;28;20563;-79
2022/04/09 00:22:33;;;;;;;1.50;1.50;;;;;;;;;;5093704;28;20497;-77
2022/04/09 00:25:00;;;;;;;1.80;1.80;;;;;;;;;;5094068;28;20824;-78
2022/04/09 00:27:27;;;;;;;1.20;1.20;;;;;;;;;;5094272;28;20449;-77
2022/04/09 00:29:54;;;;;;;1.40;1.40;;;;;;;;;;5094260;28;20489;-77
2022/04/09 00:32:21;;;;;;;1.33;1.33;;;;;;;;;;5093905;28;20452;-76
2022/04/09 00:34:48;;;;;;;1.57;1.57;;;;;;;;;;5093407;28;21028;-79
2022/04/09 00:37:19;;;;;;;1.70;1.70;;;;;;;;;;5094534;28;20505;-77
2022/04/09 00:39:47;;;;;;;1.77;1.77;;;;;;;;;;5098304;28;20468;-78
2022/04/09 00:42:14;;;;;;;1.87;1.77;;;;;;;;;;5117828;28;20507;-78
2022/04/09 00:44:41;;;;;;;1.50;1.50;;;;;;;;;;5117753;28;20444;-81
2022/04/09 00:47:09;;;;;;;1.97;1.97;;;;;;;;;;5117296;28;20428;-80
2022/04/09 00:49:37;;;;;;;2.10;2.00;;;;;;;;;;5116350;28;20420;-78
2022/04/09 00:52:05;;;;;;;2.13;2.03;;;;;;;;;;5116513;28;20440;-78
2022/04/09 00:54:33;;;;;;;1.63;1.63;;;;;;;;;;5102809;28;20490;-78
2022/04/09 00:57:04;;;;;;;1.67;1.67;;;;;;;;;;5094754;28;20452;-77
2022/04/09 00:59:32;;;;;;;1.40;1.40;;;;;;;;;;5095265;28;20460;-80
2022/04/09 01:02:00;;;;;;;1.30;1.30;;;;;;;;;;5094657;28;20486;-78
2022/04/09 01:04:28;;;;;;;1.40;1.40;;;;;;;;;;5094345;28;20460;-78
2022/04/09 01:06:55;;;;;;;1.30;1.30;;;;;;;;;;5094141;28;20440;-78
2022/04/09 01:09:22;;;;;;;1.53;1.43;;;;;;;;;;5094504;28;20536;-77
2022/04/09 01:11:50;;;;;;;1.40;1.40;;;;;;;;;;5093550;28;20866;-79
2022/04/09 01:14:19;;;;;;;1.43;1.43;;;;;;;;;;5092805;28;20471;-77
2022/04/09 01:16:46;;;;;;;1.60;1.60;;;;;;;;;;5093406;28;20485;-77
2022/04/09 01:19:13;;;;;;;2.00;1.90;;;;;;;;;;5093206;28;20535;-78
2022/04/09 01:21:41;;;;;;;2.00;1.90;;;;;;;;;;5093156;28;20444;-77
2022/04/09 01:24:09;;;;;;;1.80;1.73;;;;;;;;;;5092495;28;20872;-78
2022/04/09 01:26:36;;;;;;;2.10;2.00;;;;;;;;;;5092668;28;20440;-77
2022/04/09 01:29:04;;;;;;;1.90;1.80;;;;;;;;;;5093145;28;20496;-78
2022/04/09 01:31:31;;;;;;;2.33;2.23;;;;;;;;;;5092873;28;20448;-77
2022/04/09 01:33:58;;;;;;;2.47;2.37;;;;;;;;;;5092929;28;20460;-77
2022/04/09 01:36:26;;;;;;;2.60;2.40;;;;;;;;;;5093134;28;20437;-78
2022/04/09 01:38:53;;;;;;;2.33;2.10;;;;;;;;;;5093194;28;20505;-80
2022/04/09 01:41:21;;;;;;;2.90;2.70;;;;;;;;;;5093121;28;20471;-78
2022/04/09 01:43:48;;;;;;;2.57;2.47;;;;;;;;;;5092794;28;20545;-78
2022/04/09 01:46:15;;;;;;;2.63;2.50;;;;;;;;;;5093149;28;20515;-78
2022/04/09 01:48:43;;;;;;;2.70;2.50;;;;;;;;;;5092772;28;20440;-78
2022/04/09 01:51:10;;;;;;;2.90;2.70;;;;;;;;;;5092337;28;20787;-77
2022/04/09 01:53:38;;;;;;;3.57;3.13;;;;;;;;;;5092284;28;20489;-78
2022/04/09 01:56:06;;;;;;;3.30;3.10;;;;;;;;;;5092570;28;20559;-78
2022/04/09 01:58:35;;;;;;;3.40;3.20;;;;;;;;;;5092182;28;20448;-78
2022/04/09 02:01:02;;;;;;;4.23;3.93;;;;;;;;;;5091902;28;20476;-77
2022/04/09 02:03:29;;;;;;;3.50;3.30;;;;;;;;;;5092167;28;20448;-77
2022/04/09 02:05:56;;;;;;;4.10;3.80;;;;;;;;;;5092301;28;20573;-78
2022/04/09 02:08:23;;;;;;;3.60;3.40;;;;;;;;;;5091405;28;20862;-78
2022/04/09 02:10:50;;;;;;;4.20;3.90;;;;;;;;;;5092069;28;20489;-78
2022/04/09 02:13:18;;;;;;;3.93;3.67;;;;;;;;;;5091398;28;20939;-78
2022/04/09 02:15:47;;;;;;;4.07;3.77;;;;;;;;;;5092201;28;20556;-80
2022/04/09 02:18:14;;;;;;;4.20;3.80;;;;;;;;;;5092001;28;20489;-78
2022/04/09 02:20:41;;;;;;;3.37;3.17;;;;;;;;;;5092110;28;20480;-77
2022/04/09 02:23:08;;;;;;;3.20;3.00;;;;;;;;;;5091217;28;20439;-78
2022/04/09 02:25:35;;;;;;;3.80;3.50;;;;;;;;;;5092022;28;20463;-77
2022/04/09 02:28:03;;;;;;;4.00;3.70;;;;;;;;;;5092048;28;20445;-77
2022/04/09 02:30:30;;;;;;;3.47;3.23;;;;;;;;;;5091788;28;20467;-79
2022/04/09 02:32:59;;;;;;;3.70;3.50;;;;;;;;;;5091608;28;20440;-78
2022/04/09 02:35:26;;;;;;;4.00;3.70;;;;;;;;;;5091809;28;20469;-78
2022/04/09 02:37:53;;;;;;;3.83;3.33;;;;;;;;;;5091592;28;20868;-78
2022/04/09 02:40:21;;;;;;;4.53;4.00;;;;;;;;;;5091416;28;20486;-78
2022/04/09 02:42:48;;;;;;;4.50;4.10;;;;;;;;;;5091968;28;20531;-77
2022/04/09 02:45:15;;;;;;;4.27;3.87;;;;;;;;;;5091777;28;20826;-79
2022/04/09 02:47:42;;;;;;;4.50;4.20;;;;;;;;;;5093047;28;20451;-76
2022/04/09 02:50:12;;;;;;;4.30;3.90;;;;;;;;;;5092809;28;20447;-77
2022/04/09 02:52:40;;;;;;;4.87;4.30;;;;;;;;;;5093191;28;20477;-78
2022/04/09 02:55:07;;;;;;;4.07;3.80;;;;;;;;;;5093178;28;20464;-78
2022/04/09 02:57:36;;;;;;;4.07;3.77;;;;;;;;;;5091941;28;20475;-78
2022/04/09 03:00:05;;;;;;;3.80;3.50;;;;;;;;;;5091355;28;20452;-77
2022/04/09 03:02:32;;;;;;;4.00;3.80;;;;;;;;;;5091424;28;21054;-78
2022/04/09 03:05:00;;;;;;;4.47;4.17;;;;;;;;;;5091764;28;20470;-78
2022/04/09 03:07:29;;;;;;;4.00;3.70;;;;;;;;;;5091576;28;20441;-77
2022/04/09 03:09:56;;;;;;;4.60;4.30;;;;;;;;;;5091260;28;20437;-77
2022/04/09 03:12:23;;;;;;;3.90;3.70;;;;;;;;;;5091292;28;20451;-78
2022/04/09 03:14:50;;;;;;;3.90;3.60;;;;;;;;;;5091098;28;20460;-78
2022/04/09 03:17:17;;;;;;;3.93;3.63;;;;;;;;;;5090879;28;20938;-79
2022/04/09 03:19:44;;;;;;;4.10;3.80;;;;;;;;;;5094202;28;20478;-77
2022/04/09 03:22:11;;;;;;;4.37;4.07;;;;;;;;;;5095003;28;20896;-78
2022/04/09 03:24:39;;;;;;;4.20;3.90;;;;;;;;;;5094475;28;20486;-79
2022/04/09 03:27:06;;;;;;;4.80;4.00;;;;;;;;;;5094686;28;20497;-80
2022/04/09 03:29:34;;;;;;;4.10;3.80;;;;;;;;;;5094935;28;20437;-78
2022/04/09 03:32:01;;;;;;;4.40;4.10;;;;;;;;;;5094882;28;20475;-77
2022/04/09 03:34:29;;;;;;;4.63;4.33;;;;;;;;;;5094503;28;20524;-79
2022/04/09 03:36:56;;;;;;;4.93;4.63;;;;;;;;;;5094989;28;20436;-77
2022/04/09 03:39:23;;;;;;;5.00;4.60;;;;;;;;;;5095196;28;20495;-77
2022/04/09 03:41:51;;;;;;;5.20;4.80;;;;;;;;;;5094733;28;20480;-79
2022/04/09 03:44:18;;;;;;;5.83;5.33;;;;;;;;;;5094527;28;20471;-78
2022/04/09 03:46:45;;;;;;;5.63;5.13;;;;;;;;;;5095947;28;20445;-78
2022/04/09 03:49:13;;;;;;;6.77;6.13;;;;;;;;;;5086589;28;20944;-78
2022/04/09 03:51:40;;;;;;;7.17;6.53;;;;;;;;;;5094523;28;20497;-79
2022/04/09 03:54:07;;;;;;;7.17;6.57;;;;;;;;;;5094199;28;20463;-78
2022/04/09 03:56:34;;;;;;;7.60;6.87;;;;;;;;;;5094721;28;20507;-76
2022/04/09 03:59:03;;;;;;;9.10;8.30;;;;;;;;;;5094122;28;20826;-77
2022/04/09 04:01:30;;;;;;;8.60;7.83;;;;;;;;;;5094165;28;20504;-77
2022/04/09 04:03:57;;;;;;;10.53;8.90;;;;;;;;;;5093743;28;20450;-78
2022/04/09 04:06:24;;;;;;;8.83;8.03;;;;;;;;;;5094535;28;20527;-78
2022/04/09 04:08:52;;;;;;;9.20;8.30;;;;;;;;;;5094353;28;20443;-77
2022/04/09 04:11:19;;;;;;;11.77;9.93;;;;;;;;;;5094470;28;20525;-79
2022/04/09 04:13:46;;;;;;;11.63;9.70;;;;;;;;;;5093354;28;20942;-77
2022/04/09 04:16:14;;;;;;;10.27;9.27;;;;;;;;;;5094055;28;20444;-78
2022/04/09 04:18:41;;;;;;;11.63;10.40;;;;;;;;;;5095729;28;20454;-77
2022/04/09 04:21:09;;;;;;;11.47;10.30;;;;;;;;;;5096934;28;20538;-77
2022/04/09 04:23:36;;;;;;;10.63;9.63;;;;;;;;;;5095839;28;20536;-77
2022/04/09 04:26:03;;;;;;;11.33;10.13;;;;;;;;;;5094151;28;20872;-76
2022/04/09 04:28:30;;;;;;;11.20;10.10;;;;;;;;;;5093850;28;20441;-78
2022/04/09 04:30:57;;;;;;;14.47;11.43;;;;;;;;;;5093268;28;20919;-77
2022/04/09 04:33:25;;;;;;;11.90;10.60;;;;;;;;;;5093670;28;20507;-78
2022/04/09 04:35:52;;;;;;;12.53;10.10;;;;;;;;;;5107022;28;20495;-78
2022/04/09 04:38:19;;;;;;;13.53;11.80;;;;;;;;;;5108321;28;20456;-77
2022/04/09 04:40:46;;;;;;;14.37;12.23;;;;;;;;;;5096492;28;20530;-77
2022/04/09 04:43:13;;;;;;;13.07;11.40;;;;;;;;;;5096578;28;20443;-80
2022/04/09 04:45:40;;;;;;;17.67;11.93;;;;;;;;;;5086555;28;20458;-78
2022/04/09 04:48:07;;;;;;;13.33;11.90;;;;;;;;;;5082081;28;20453;-77
2022/04/09 04:50:37;;;;;;;13.53;11.27;;;;;;;;;;5076576;28;20442;-78
2022/04/09 04:53:04;;;;;;;13.53;11.53;;;;;;;;;;5077057;28;20443;-77
2022/04/09 04:55:31;;;;;;;13.57;12.13;;;;;;;;;;5075458;28;20972;-78
2022/04/09 04:57:58;;;;;;;12.10;10.80;;;;;;;;;;5074571;28;20458;-76
2022/04/09 05:00:26;;;;;;;14.33;11.43;;;;;;;;;;5074070;28;20956;-79
2022/04/09 05:02:54;;;;;;;13.97;12.10;;;;;;;;;;5072861;28;20833;-77
2022/04/09 05:05:21;;;;;;;15.50;11.30;;;;;;;;;;5072995;28;20466;-77
2022/04/09 05:07:51;;;;;;;12.90;11.13;;;;;;;;;;5072898;28;20448;-76
2022/04/09 05:10:18;;;;;;;17.43;11.17;;;;;;;;;;5073087;28;20478;-76
2022/04/09 05:12:46;;;;;;;16.30;12.60;;;;;;;;;;5072734;28;20504;-79
2022/04/09 05:15:13;;;;;;;12.00;10.80;;;;;;;;;;5072693;28;20807;-76
2022/04/09 05:17:40;;;;;;;16.53;11.27;;;;;;;;;;5072537;28;20500;-77
2022/04/09 05:20:08;;;;;;;11.70;10.50;;;;;;;;;;5072845;28;20825;-78
2022/04/09 05:22:38;;;;;;;11.60;10.10;;;;;;;;;;5072512;28;20478;-77
2022/04/09 05:25:07;;;;;;;13.63;10.27;;;;;;;;;;5072503;28;20470;-77
2022/04/09 05:27:34;;;;;;;12.57;11.30;;;;;;;;;;5072239;28;20506;-78
2022/04/09 05:30:01;;;;;;;13.10;10.63;;;;;;;;;;5072559;28;20441;-77
2022/04/09 05:32:28;;;;;;;11.33;10.10;;;;;;;;;;5072523;28;20440;-78
2022/04/09 05:34:56;;;;;;;12.90;10.90;;;;;;;;;;5072520;28;20467;-78
2022/04/09 05:37:23;;;;;;;11.40;9.83;;;;;;;;;;5072689;28;20443;-77
2022/04/09 05:39:50;;;;;;;11.37;10.13;;;;;;;;;;5072568;28;21145;-77
2022/04/09 05:42:19;;;;;;;11.97;9.67;;;;;;;;;;5071476;28;20471;-78
2022/04/09 05:44:46;;;;;;;10.80;9.67;;;;;;;;;;5072095;28;20828;-77
2022/04/09 05:47:13;;;;;;;10.87;9.77;;;;;;;;;;5072398;28;20423;-77
2022/04/09 05:49:40;;;;;;;11.73;9.97;;;;;;;;;;5086133;28;20784;-77
2022/04/09 05:52:07;;;;;;;10.63;9.53;;;;;;;;;;5080757;28;20503;-77
2022/04/09 05:54:34;;;;;;;10.90;9.80;;;;;;;;;;5071831;28;20483;-78
2022/04/09 05:57:02;;;;;;;10.33;9.33;;;;;;;;;;5072318;28;20449;-78
2022/04/09 05:59:31;;;;;;;11.20;10.03;;;;;;;;;;5072077;28;20443;-79
2022/04/09 06:01:58;;;;;;;12.63;9.33;;;;;;;;;;5092158;28;20537;-80
2022/04/09 06:04:25;;;;;;;10.17;8.90;;;;;;;;;;5092709;28;20573;-78
2022/04/09 06:06:52;;;;;;;11.87;8.80;;;;;;;;;;5091798;28;20446;-77
2022/04/09 06:09:19;;;;;;;8.90;8.10;;;;;;;;;;5076757;28;20484;-77
2022/04/09 06:11:47;;;;;;;10.57;9.57;;;;;;;;;;5092336;28;20506;-79
2022/04/09 06:14:15;;;;;;;9.60;8.63;;;;;;;;;;5091799;28;20479;-77
2022/04/09 06:16:44;;;;;;;9.17;8.37;;;;;;;;;;5091720;28;20444;-79
2022/04/09 06:19:11;;;;;;;9.57;8.73;;;;;;;;;;5092487;28;20537;-78
2022/04/09 06:21:38;;;;;;;10.97;9.77;;;;;;;;;;5092414;28;20484;-79
2022/04/09 06:24:06;;;;;;;10.00;9.07;;;;;;;;;;5091911;28;20543;-78
2022/04/09 06:26:33;;;;;;;8.97;8.17;;;;;;;;;;5092291;28;20503;-77
2022/04/09 06:29:00;;;;;;;10.20;8.03;;;;;;;;;;5092156;28;20487;-79
2022/04/09 06:31:27;;;;;;;9.00;8.10;;;;;;;;;;5093756;28;20530;-77
2022/04/09 06:33:56;;;;;;;9.30;8.50;;;;;;;;;;5094188;28;20503;-79
2022/04/09 06:36:23;;;;;;;8.90;7.47;;;;;;;;;;5092808;28;20450;-80
2022/04/09 06:38:50;;;;;;;8.60;7.87;;;;;;;;;;5093692;28;20819;-77
2022/04/09 06:41:18;;;;;;;7.87;7.00;;;;;;;;;;5092970;28;20475;-77
2022/04/09 06:43:45;;;;;;;8.53;7.63;;;;;;;;;;5093191;28;20447;-80
2022/04/09 06:46:13;;;;;;;8.67;7.30;;;;;;;;;;5093128;28;20442;-78
2022/04/09 06:48:40;;;;;;;8.60;7.67;;;;;;;;;;5093370;28;20446;-79
2022/04/09 06:51:08;;;;;;;7.50;6.90;;;;;;;;;;5093318;28;20533;-78
2022/04/09 06:53:35;;;;;;;7.97;7.17;;;;;;;;;;5094323;28;20437;-78
2022/04/09 06:56:05;;;;;;;8.33;7.13;;;;;;;;;;5096978;28;20799;-77
2022/04/09 06:58:32;;;;;;;10.57;7.07;;;;;;;;;;5098528;28;20535;-79
2022/04/09 07:00:59;;;;;;;8.50;7.70;;;;;;;;;;5096961;28;20931;-78
2022/04/09 07:03:26;;;;;;;12.90;7.40;;;;;;;;;;5099386;28;20524;-80
2022/04/09 07:05:53;;;;;;;7.90;6.97;;;;;;;;;;5096516;28;20815;-78
2022/04/09 07:08:22;;;;;;;9.70;8.20;;;;;;;;;;5096729;28;20443;-79
2022/04/09 07:10:49;;;;;;;7.70;6.90;;;;;;;;;;5096070;28;20956;-77
2022/04/09 07:13:16;;;;;;;7.93;7.20;;;;;;;;;;5096875;28;20454;-77
2022/04/09 07:15:43;;;;;;;7.87;7.10;;;;;;;;;;5096725;28;20537;-79
2022/04/09 07:18:10;;;;;;;9.10;8.27;;;;;;;;;;5096740;28;20434;-77
2022/04/09 07:20:40;;;;;;;9.27;6.97;;;;;;;;;;5097235;28;20447;-79
2022/04/09 07:23:08;;;;;;;11.90;7.23;;;;;;;;;;5096961;28;20564;-79
2022/04/09 07:25:36;;;;;;;10.13;6.73;;;;;;;;;;5095062;28;20540;-77
2022/04/09 07:28:06;;;;;;;9.87;6.70;;;;;;;;;;5095266;28;20443;-78
2022/04/09 07:30:33;;;;;;;7.17;6.57;;;;;;;;;;5094963;28;20428;-77
2022/04/09 07:33:00;;;;;;;9.07;6.90;;;;;;;;;;5094876;28;20453;-76
2022/04/09 07:35:28;;;;;;;10.50;6.70;;;;;;;;;;5095578;28;20460;-78
2022/04/09 07:37:58;;;;;;;13.50;8.40;;;;;;;;;;5095238;28;20446;-76
2022/04/09 07:40:27;;;;;;;9.80;7.27;;;;;;;;;;5094807;28;20501;-77
2022/04/09 07:42:57;;;;;;;7.07;6.40;;;;;;;;;;5094315;28;20467;-78
2022/04/09 07:45:24;;;;;;;8.63;7.10;;;;;;;;;;5095026;28;20486;-78
2022/04/09 07:47:53;;;;;;;6.53;5.93;;;;;;;;;;5094548;28;20447;-78
2022/04/09 07:50:20;;;;;;;6.73;6.13;;;;;;;;;;5095046;28;20473;-79
2022/04/09 07:52:47;;;;;;;10.13;6.50;;;;;;;;;;5092869;28;20469;-79
2022/04/09 07:55:16;;;;;;;8.70;5.83;;;;;;;;;;5075020;28;20460;-78
2022/04/09 07:57:43;;;;;;;6.70;6.00;;;;;;;;;;5074399;28;20531;-78
2022/04/09 08:00:12;;;;;;;6.73;6.00;;;;;;;;;;5075215;28;20437;-78
2022/04/09 08:02:39;;;;;;;7.20;5.33;;;;;;;;;;5082481;28;20468;-78
2022/04/09 08:05:07;;;;;;;8.57;5.40;;;;;;;;;;5094108;28;20464;-78
2022/04/09 08:07:34;;;;;;;6.63;5.77;;;;;;;;;;5094448;28;20825;-77
2022/04/09 08:10:01;;;;;;;5.30;4.80;;;;;;;;;;5094561;28;20440;-79
2022/04/09 08:12:28;;;;;;;7.20;6.60;;;;;;;;;;5094052;28;20443;-81
2022/04/09 08:14:56;;;;;;;6.40;5.87;;;;;;;;;;5094522;28;20460;-78
2022/04/09 08:17:24;;;;;;;5.77;4.90;;;;;;;;;;5094357;28;20921;-79
2022/04/09 08:19:51;;;;;;;6.00;5.43;;;;;;;;;;5094387;28;20435;-79
2022/04/09 08:22:20;;;;;;;7.93;5.07;;;;;;;;;;5094292;28;20925;-77
2022/04/09 08:24:47;;;;;;;7.10;5.30;;;;;;;;;;5094065;28;20992;-76
2022/04/09 08:27:14;;;;;;;6.10;5.30;;;;;;;;;;5104203;28;20489;-77
2022/04/09 08:29:42;;;;;;;10.37;5.47;;;;;;;;;;5100007;28;20503;-79
2022/04/09 08:32:09;;;;;;;5.43;4.93;;;;;;;;;;5094636;28;20443;-79
2022/04/09 08:34:38;;;;;;;9.80;5.37;;;;;;;;;;5095415;28;20474;-79
2022/04/09 08:37:06;;;;;;;6.70;5.03;;;;;;;;;;5093909;28;20463;-78
2022/04/09 08:39:33;;;;;;;6.13;5.53;;;;;;;;;;5094254;28;20490;-77
2022/04/09 08:42:00;;;;;;;9.60;6.03;;;;;;;;;;5093921;28;20479;-78
2022/04/09 08:44:29;;;;;;;9.43;5.70;;;;;;;;;;5093931;28;20467;-77
2022/04/09 08:46:56;;;;;;;6.37;5.77;;;;;;;;;;5093847;28;20497;-77
2022/04/09 08:49:24;;;;;;;11.43;6.03;;;;;;;;;;5093830;28;20451;-78
2022/04/09 08:51:53;;;;;;;6.60;5.73;;;;;;;;;;5096166;28;20439;-79
2022/04/09 08:54:20;;;;;;;7.67;5.93;;;;;;;;;;5095643;28;20463;-77
2022/04/09 08:56:49;;;;;;;7.70;6.23;;;;;;;;;;5093850;28;20439;-79
2022/04/09 08:59:16;;;;;;;7.03;6.37;;;;;;;;;;5095734;28;20448;-76
2022/04/09 09:01:43;;;;;;;7.17;6.47;;;;;;;;;;5096495;28;20589;-79
2022/04/09 09:04:10;;;;;;;10.07;6.30;;;;;;;;;;5096931;28;20452;-78
2022/04/09 09:06:40;;;;;;;10.40;6.57;;;;;;;;;;5094430;28;20447;-79
2022/04/09 09:09:14;;;;;;;6.10;5.60;;;;;;;;;;5094514;28;20440;-78
2022/04/09 09:11:45;;;;;;;9.70;6.27;;;;;;;;;;5093333;28;20431;-78
2022/04/09 09:14:13;;;;;;;6.10;5.47;;;;;;;;;;5092618;28;20475;-78
2022/04/09 09:16:40;;;;;;;8.00;5.90;;;;;;;;;;5093296;28;20497;-79
2022/04/09 09:19:09;;;;;;;10.47;5.80;;;;;;;;;;5093733;28;20443;-78
2022/04/09 09:21:36;;;;;;;11.13;6.20;;;;;;;;;;5093491;28;20454;-78
2022/04/09 09:24:15;;;;;;;7.83;4.67;;;;;;;;;;5094226;28;20483;-78
2022/04/09 09:26:44;;;;;;;5.30;4.80;;;;;;;;;;5096929;28;20499;-77
2022/04/09 09:29:13;;;;;;;6.17;5.57;;;;;;;;;;5097114;28;20506;-78
2022/04/09 09:31:41;;;;;;;5.67;5.17;;;;;;;;;;5089993;28;20991;-79
2022/04/09 09:34:09;;;;;;;5.23;4.73;;;;;;;;;;5096557;28;20464;-77
2022/04/09 09:36:38;;;;;;;5.20;4.80;;;;;;;;;;5094650;28;20992;-78
2022/04/09 09:39:06;;;;;;;5.57;5.07;;;;;;;;;;5093930;28;20463;-79
2022/04/09 09:41:35;;;;;;;6.53;4.67;;;;;;;;;;5093662;28;20883;-78
2022/04/09 09:44:03;;;;;;;6.30;4.30;;;;;;;;;;5092681;28;20479;-77
2022/04/09 09:46:30;;;;;;;6.47;4.90;;;;;;;;;;5092092;28;20915;-77
2022/04/09 09:48:57;;;;;;;5.07;4.47;;;;;;;;;;5092046;28;20975;-79
2022/04/09 09:51:25;;;;;;;5.53;3.90;;;;;;;;;;5092616;28;20504;-78
2022/04/09 09:54:03;;;;;;;6.50;4.37;;;;;;;;;;5091906;28;20477;-78
2022/04/09 09:56:41;;;;;;;10.00;4.23;;;;;;;;;;5089589;28;20482;-79
2022/04/09 09:59:09;;;;;;;5.53;4.00;;;;;;;;;;5091592;28;20530;-78
2022/04/09 10:01:36;;;;;;;4.90;4.17;;;;;;;;;;5092104;28;20496;-77
2022/04/09 10:04:04;;;;;;;6.00;4.30;;;;;;;;;;5091699;28;20524;-77
2022/04/09 10:06:32;;;;;;;4.23;3.83;;;;;;;;;;5092019;28;20523;-78
2022/04/09 10:08:59;;;;;;;9.33;4.17;;;;;;;;;;5092518;28;20471;-77
2022/04/09 10:11:27;;;;;;;8.03;4.00;;;;;;;;;;5094364;28;20501;-78
2022/04/09 10:13:57;;;;;;;6.50;4.33;;;;;;;;;;5094824;28;20474;-80
2022/04/09 10:16:26;;;;;;;4.77;3.60;;;;;;;;;;5093387;28;20439;-77
2022/04/09 10:18:57;;;;;;;6.00;4.33;;;;;;;;;;5092620;28;20455;-78
2022/04/09 10:21:24;;;;;;;4.30;3.90;;;;;;;;;;5092297;28;20829;-78
2022/04/09 10:23:52;;;;;;;3.90;3.57;;;;;;;;;;5092064;28;20479;-80
2022/04/09 10:26:19;;;;;;;5.47;3.70;;;;;;;;;;5092426;28;20777;-79
2022/04/09 10:28:51;;;;;;;6.17;3.40;;;;;;;;;;5091464;28;20452;-77
2022/04/09 10:31:33;;;;;;;4.00;3.40;;;;;;;;;;5091683;28;20424;-78
2022/04/09 10:34:03;;;;;;;5.00;3.90;;;;;;;;;;5089485;28;20486;-79
2022/04/09 10:36:48;;;;;;;6.97;3.33;;;;;;;;;;5092437;28;20436;-78
2022/04/09 10:39:21;;;;;;;4.90;3.80;;;;;;;;;;5080711;28;20498;-77
2022/04/09 10:41:49;;;;;;;3.80;3.10;;;;;;;;;;5071808;28;20448;-79
2022/04/09 10:44:31;;;;;;;6.00;3.40;;;;;;;;;;5070743;28;20971;-78
2022/04/09 10:47:01;;;;;;;5.63;4.53;;;;;;;;;;5071565;28;20937;-79
2022/04/09 10:49:30;;;;;;;8.47;5.00;;;;;;;;;;5071192;28;20878;-78
2022/04/09 10:52:05;;;;;;;4.50;3.20;;;;;;;;;;5090774;28;20454;-77
2022/04/09 10:54:33;;;;;;;7.93;4.00;;;;;;;;;;5091307;28;20609;-78
2022/04/09 10:57:07;;;;;;;5.83;4.93;;;;;;;;;;5092756;28;20865;-79
2022/04/09 10:59:37;;;;;;;5.80;3.67;;;;;;;;;;5091851;28;20503;-78
2022/04/09 11:02:04;;;;;;;6.37;4.13;;;;;;;;;;5091719;28;20440;-79
2022/04/09 11:04:41;;;;;;;8.70;4.17;;;;;;;;;;5090846;28;21176;-79
2022/04/09 11:07:09;;;;;;;7.43;4.00;;;;;;;;;;5091669;28;20435;-78
2022/04/09 11:10:00;;;;;;;4.03;3.40;;;;;;;;;;5091205;28;20856;-77
2022/04/09 11:12:28;;;;;;;4.03;3.60;;;;;;;;;;5071039;28;20450;-78
2022/04/09 11:14:57;;;;;;;6.27;4.10;;;;;;;;;;5091622;28;20470;-80
2022/04/09 11:17:28;;;;;;;3.50;3.20;;;;;;;;;;5092201;28;20443;-79
2022/04/09 11:19:57;;;;;;;3.80;3.50;;;;;;;;;;5091314;28;20451;-80
2022/04/09 11:22:32;;;;;;;6.10;3.63;;;;;;;;;;5091153;28;20428;-82
2022/04/09 11:24:59;;;;;;;5.53;3.13;;;;;;;;;;5090135;28;20545;-77
2022/04/09 11:27:26;;;;;;;3.63;3.27;;;;;;;;;;5090404;28;20447;-80
2022/04/09 11:29:55;;;;;;;7.13;3.67;;;;;;;;;;5090816;28;20475;-79
2022/04/09 11:32:22;;;;;;;3.10;2.80;;;;;;;;;;5090868;28;20486;-78
2022/04/09 11:34:50;;;;;;;3.80;3.47;;;;;;;;;;5089005;28;20478;-78
2022/04/09 11:37:19;;;;;;;5.87;3.27;;;;;;;;;;5090617;28;20682;-79
2022/04/09 11:39:47;;;;;;;5.03;3.20;;;;;;;;;;5092052;28;20454;-78
2022/04/09 11:42:14;;;;;;;4.87;3.57;;;;;;;;;;5084365;28;20440;-78
2022/04/09 11:44:41;;;;;;;4.83;3.63;;;;;;;;;;5087768;28;20486;-79
2022/04/09 11:47:09;;;;;;;3.90;3.47;;;;;;;;;;5077611;28;20440;-80
2022/04/09 11:49:36;;;;;;;6.63;3.60;;;;;;;;;;5089776;28;20887;-79
2022/04/09 11:52:03;;;;;;;5.23;4.07;;;;;;;;;;5082979;28;20452;-79
2022/04/09 11:54:35;;;;;;;4.57;3.20;;;;;;;;;;5092942;28;20463;-79
2022/04/09 11:57:03;;;;;;;5.60;3.60;;;;;;;;;;5078005;28;20805;-78
2022/04/09 11:59:31;;;;;;;6.70;3.63;;;;;;;;;;5095663;28;20447;-78
2022/04/09 12:01:58;;;;;;;7.63;4.20;;;;;;;;;;5095854;28;20443;-80
2022/04/09 12:04:25;;;;;;;5.23;3.83;;;;;;;;;;5095058;28;20503;-77
2022/04/09 12:06:52;;;;;;;3.77;3.47;;;;;;;;;;5095051;28;20476;-79
2022/04/09 12:09:21;;;;;;;3.47;3.23;;;;;;;;;;5095154;28;20451;-81
2022/04/09 12:11:53;;;;;;;4.13;3.30;;;;;;;;;;5095074;28;20911;-81
2022/04/09 12:14:24;;;;;;;5.53;4.50;;;;;;;;;;5094131;28;20501;-78
2022/04/09 12:16:51;;;;;;;4.13;3.80;;;;;;;;;;5093813;28;20923;-80
2022/04/09 12:19:29;;;;;;;4.27;3.60;;;;;;;;;;5093601;28;20505;-80
2022/04/09 12:21:57;;;;;;;3.70;3.40;;;;;;;;;;5093342;28;20456;-79
2022/04/09 12:24:29;;;;;;;6.33;3.10;;;;;;;;;;5092924;28;21311;-80
2022/04/09 12:26:58;;;;;;;3.43;3.00;;;;;;;;;;5095115;28;20799;-80
2022/04/09 12:29:26;;;;;;;4.73;3.00;;;;;;;;;;5093781;28;20440;-79
2022/04/09 12:31:54;;;;;;;5.20;3.80;;;;;;;;;;5093976;28;20432;-79
2022/04/09 12:34:21;;;;;;;3.77;3.47;;;;;;;;;;5093806;28;20468;-78
2022/04/09 12:37:01;;;;;;;3.50;3.10;;;;;;;;;;5093987;28;20452;-78
2022/04/09 12:39:29;;;;;;;3.30;2.90;;;;;;;;;;5093405;28;20432;-78
2022/04/09 12:41:56;;;;;;;4.93;3.73;;;;;;;;;;5093515;28;20431;-78
2022/04/09 12:44:28;;;;;;;3.80;2.40;;;;;;;;;;5092968;28;20480;-79
2022/04/09 12:46:55;;;;;;;3.33;2.40;;;;;;;;;;5093137;28;20470;-78
2022/04/09 12:49:26;;;;;;;4.27;3.57;;;;;;;;;;5093052;28;20452;-79
2022/04/09 12:51:53;;;;;;;4.87;2.70;;;;;;;;;;5092611;28;21022;-80
2022/04/09 12:54:21;;;;;;;3.90;2.83;;;;;;;;;;5093402;28;20463;-78
2022/04/09 12:57:05;;;;;;;6.30;2.70;;;;;;;;;;5093597;28;20494;-79
2022/04/09 12:59:34;;;;;;;5.30;3.50;;;;;;;;;;5095503;28;20458;-80
2022/04/09 13:02:09;;;;;;;4.33;2.70;;;;;;;;;;5088819;28;20515;-80
2022/04/09 13:04:36;;;;;;;4.40;3.50;;;;;;;;;;5095121;28;20562;-80
2022/04/09 13:07:04;;;;;;;5.83;2.90;;;;;;;;;;5095997;28;20424;-79
2022/04/09 13:09:31;;;;;;;4.73;3.00;;;;;;;;;;5097769;28;20856;-78
2022/04/09 13:11:59;;;;;;;3.70;3.00;;;;;;;;;;5099804;28;20444;-79
2022/04/09 13:14:26;;;;;;;4.70;2.80;;;;;;;;;;5099211;28;20468;-78
2022/04/09 13:16:54;;;;;;;4.80;2.70;;;;;;;;;;5096142;28;20452;-80
2022/04/09 13:19:26;;;;;;;4.60;2.60;;;;;;;;;;5098077;28;20479;-80
2022/04/09 13:22:07;;;;;;;6.53;3.20;;;;;;;;;;5108045;28;20448;-80
2022/04/09 13:24:40;;;;;;;4.00;2.93;;;;;;;;;;5113357;28;20567;-81
2022/04/09 13:27:07;;;;;;;2.90;2.57;;;;;;;;;;5113819;28;20444;-82
2022/04/09 13:29:34;;;;;;;4.67;2.80;;;;;;;;;;5117817;28;20436;-85
2022/04/09 13:32:04;;;;;;;6.30;3.90;;;;;;;;;;5117874;28;20435;-83
2022/04/09 13:34:31;;;;;;;3.97;3.00;;;;;;;;;;5116541;28;20439;-84
2022/04/09 13:36:58;;;;;;;4.27;2.73;;;;;;;;;;5116916;28;20439;-86
2022/04/09 13:39:26;;;;;;;6.50;2.60;;;;;;;;;;5106747;28;20504;-80
2022/04/09 13:41:54;;;;;;;4.83;2.40;;;;;;;;;;5087072;28;20786;-80
2022/04/09 13:44:21;;;;;;;4.33;2.90;;;;;;;;;;5087969;28;20558;-81
2022/04/09 13:46:48;;;;;;;5.97;2.67;;;;;;;;;;5094432;28;20444;-80
2022/04/09 13:49:17;;;;;;;3.70;3.40;;;;;;;;;;5094924;28;20495;-80
2022/04/09 13:51:44;;;;;;;3.97;3.10;;;;;;;;;;5093629;28;20440;-79
2022/04/09 13:54:11;;;;;;;2.97;2.67;;;;;;;;;;5093123;28;20456;-79
2022/04/09 13:56:38;;;;;;;2.87;2.30;;;;;;;;;;5095016;28;20443;-80
2022/04/09 13:59:05;;;;;;;7.13;3.10;;;;;;;;;;5093653;28;20849;-81
2022/04/09 14:01:33;;;;;;;5.20;2.20;;;;;;;;;;5092918;28;20448;-79
2022/04/09 14:04:00;;;;;;;5.20;2.60;;;;;;;;;;5083497;28;20475;-78
2022/04/09 14:06:28;;;;;;;3.53;2.47;;;;;;;;;;5074316;28;20452;-80
2022/04/09 14:08:56;;;;;;;3.77;2.67;;;;;;;;;;5081409;28;20479;-80
2022/04/09 14:11:23;;;;;;;4.63;2.47;;;;;;;;;;5092255;28;20500;-78
2022/04/09 14:13:50;;;;;;;2.67;2.47;;;;;;;;;;5092219;28;20451;-80
2022/04/09 14:16:17;;;;;;;3.90;2.17;;;;;;;;;;5090747;28;20440;-80
2022/04/09 14:18:44;;;;;;;2.73;2.50;;;;;;;;;;5091966;28;20456;-78
2022/04/09 14:21:14;;;;;;;4.70;2.20;;;;;;;;;;5094034;28;20816;-80
2022/04/09 14:23:43;;;;;;;5.93;2.53;;;;;;;;;;5091778;28;20443;-79
2022/04/09 14:26:10;;;;;;;4.70;3.10;;;;;;;;;;5092770;28;20451;-80
2022/04/09 14:28:37;;;;;;;2.70;2.50;;;;;;;;;;5092537;28;20456;-78
2022/04/09 14:31:06;;;;;;;6.57;2.90;;;;;;;;;;5092579;28;20440;-81
2022/04/09 14:33:34;;;;;;;3.60;2.80;;;;;;;;;;5092030;28;20452;-78
2022/04/09 14:36:01;;;;;;;3.63;2.50;;;;;;;;;;5091992;28;20464;-78
2022/04/09 14:38:33;;;;;;;3.83;2.80;;;;;;;;;;5091708;28;20947;-81
2022/04/09 14:41:03;;;;;;;4.57;2.73;;;;;;;;;;5092516;28;20434;-80
2022/04/09 14:43:33;;;;;;;6.07;3.83;;;;;;;;;;5092074;28;20473;-79